Time;durP1;ratioP1;P1;durP2;ratioP2;P2;SDS_P1;SDS_P2;PMS_P1;PMS_P2;Temp;Humidity;BMP_temperature;BMP_pressure;BME280_temperature;BME280_humidity;BME280_pressure;Samples;Min_cycle;Max_cycle;Signal;HPM_P1;HPM_P2
2021/07/18 00:00:35;;;;;;;4.55;3.95;;;18.50;99.90;;;;;;5017994;28;20014;-37
2021/07/18 00:03:01;;;;;;;5.45;3.88;;;18.50;99.90;;;;;;5026003;28;20052;-37
2021/07/18 00:05:26;;;;;;;5.15;4.38;;;18.50;99.90;;;;;;5021433;28;20036;-37
2021/07/18 00:07:52;;;;;;;5.03;4.10;;;18.50;99.90;;;;;;5013861;28;20057;-37
2021/07/18 00:10:18;;;;;;;6.35;4.38;;;18.50;99.90;;;;;;5013869;28;20029;-37
2021/07/18 00:12:43;;;;;;;4.88;3.53;;;18.50;99.90;;;;;;5016336;28;20033;-37
2021/07/18 00:15:11;;;;;;;7.32;4.65;;;18.50;99.90;;;;;;5011409;28;20018;-37
2021/07/18 00:17:37;;;;;;;6.18;4.65;;;18.40;99.90;;;;;;5018109;28;20084;-37
2021/07/18 00:20:09;;;;;;;5.20;4.20;;;18.40;99.90;;;;;;5010336;28;20457;-37
2021/07/18 00:22:35;;;;;;;6.97;4.83;;;18.40;99.90;;;;;;5019805;28;20073;-37
2021/07/18 00:25:01;;;;;;;5.57;4.40;;;18.40;99.90;;;;;;5009818;28;20332;-37
2021/07/18 00:27:26;;;;;;;5.00;4.50;;;18.40;99.90;;;;;;5019264;28;20106;-37
2021/07/18 00:29:52;;;;;;;6.20;4.70;;;18.40;99.90;;;;;;5008799;28;20113;-37
2021/07/18 00:32:20;;;;;;;5.35;4.82;;;18.30;99.90;;;;;;5021146;28;20068;-37
2021/07/18 00:34:45;;;;;;;6.68;4.78;;;18.30;99.90;;;;;;5008442;28;20044;-37
2021/07/18 00:37:11;;;;;;;9.07;5.55;;;18.30;99.90;;;;;;5021815;28;20033;-37
2021/07/18 00:39:36;;;;;;;6.95;5.05;;;18.30;99.90;;;;;;5011064;28;20041;-37
2021/07/18 00:42:02;;;;;;;7.35;5.43;;;18.30;99.90;;;;;;5022724;28;20083;-37
2021/07/18 00:44:28;;;;;;;10.55;6.18;;;18.30;99.90;;;;;;5013935;28;20454;-37
2021/07/18 00:46:53;;;;;;;9.40;5.85;;;18.30;99.90;;;;;;5019157;28;20053;-37
2021/07/18 00:49:19;;;;;;;11.52;7.07;;;18.30;99.90;;;;;;5015965;28;20025;-37
2021/07/18 00:51:45;;;;;;;9.00;6.43;;;18.30;99.90;;;;;;5016153;28;20112;-37
2021/07/18 00:54:11;;;;;;;12.23;6.93;;;18.30;99.90;;;;;;5019111;28;20481;-37
2021/07/18 00:56:38;;;;;;;12.02;7.38;;;18.30;99.90;;;;;;5013981;28;20072;-37
2021/07/18 00:59:04;;;;;;;12.35;7.00;;;18.30;99.90;;;;;;5020978;28;20100;-37
2021/07/18 01:01:30;;;;;;;8.18;7.03;;;18.30;99.90;;;;;;5012462;28;20563;-37
2021/07/18 01:03:56;;;;;;;10.98;6.85;;;18.30;99.90;;;;;;5024215;28;20034;-36
2021/07/18 01:06:22;;;;;;;12.63;7.03;;;18.30;99.90;;;;;;5029227;28;20025;-37
2021/07/18 01:08:47;;;;;;;9.77;6.78;;;18.30;99.90;;;;;;5020090;28;20457;-37
2021/07/18 01:11:13;;;;;;;11.38;7.95;;;18.30;99.90;;;;;;5031635;28;20037;-37
2021/07/18 01:13:39;;;;;;;9.30;7.32;;;18.30;99.90;;;;;;5017877;28;20279;-37
2021/07/18 01:16:05;;;;;;;9.23;7.40;;;18.30;99.90;;;;;;5031384;28;20028;-37
2021/07/18 01:18:31;;;;;;;12.70;7.43;;;18.30;99.90;;;;;;5018657;28;20026;-37
2021/07/18 01:20:57;;;;;;;15.57;8.50;;;18.30;99.90;;;;;;5031218;28;20477;-37
2021/07/18 01:23:23;;;;;;;9.07;7.25;;;18.30;99.90;;;;;;5020271;28;20038;-37
2021/07/18 01:25:52;;;;;;;13.93;9.43;;;18.20;99.90;;;;;;5029604;28;20376;-37
2021/07/18 01:28:19;;;;;;;14.98;8.55;;;18.20;99.90;;;;;;5021749;28;20212;-37
2021/07/18 01:30:45;;;;;;;17.23;9.90;;;18.20;99.90;;;;;;5026140;28;20037;-37
2021/07/18 01:33:10;;;;;;;17.00;10.00;;;18.20;99.90;;;;;;5025140;28;20436;-37
2021/07/18 01:35:36;;;;;;;24.00;10.23;;;18.10;99.90;;;;;;5023526;28;20079;-37
2021/07/18 01:38:05;;;;;;;16.65;9.65;;;18.10;99.90;;;;;;5027961;28;20067;-37
2021/07/18 01:40:31;;;;;;;20.27;11.18;;;18.10;99.90;;;;;;5021550;28;20028;-37
2021/07/18 01:42:56;;;;;;;17.13;9.85;;;18.20;99.90;;;;;;5029097;28;20406;-37
2021/07/18 01:45:23;;;;;;;16.10;10.30;;;18.20;99.90;;;;;;5019271;28;20032;-37
2021/07/18 01:47:49;;;;;;;23.38;11.43;;;18.10;99.90;;;;;;5028003;28;20381;-37
2021/07/18 01:50:16;;;;;;;18.17;10.05;;;18.10;99.90;;;;;;5019245;28;20017;-37
2021/07/18 01:52:42;;;;;;;17.98;10.02;;;18.10;99.90;;;;;;5029855;28;20049;-37
2021/07/18 01:55:08;;;;;;;18.00;8.50;;;18.20;99.90;;;;;;5022885;28;20429;-37
2021/07/18 01:57:34;;;;;;;16.08;9.23;;;18.20;99.90;;;;;;5009805;28;20060;-37
2021/07/18 02:00:00;;;;;;;17.23;9.35;;;18.20;99.90;;;;;;5023307;28;20053;-37
2021/07/18 02:02:25;;;;;;;16.08;8.77;;;18.20;99.90;;;;;;5009664;28;20104;-37
2021/07/18 02:04:51;;;;;;;11.70;8.45;;;18.20;99.90;;;;;;5013034;28;20018;-37
2021/07/18 02:07:17;;;;;;;12.65;8.52;;;18.10;99.90;;;;;;5011648;28;20433;-37
2021/07/18 02:09:43;;;;;;;12.00;7.80;;;18.20;99.90;;;;;;5014960;28;20120;-37
2021/07/18 02:12:09;;;;;;;13.90;8.32;;;18.20;99.90;;;;;;5026540;28;20017;-37
2021/07/18 02:14:37;;;;;;;13.07;8.35;;;18.20;99.90;;;;;;5023905;28;20041;-37
2021/07/18 02:17:04;;;;;;;14.65;8.60;;;18.30;99.90;;;;;;5023212;28;20504;-37
2021/07/18 02:19:31;;;;;;;17.45;8.88;;;18.20;99.90;;;;;;5026653;28;20504;-37
2021/07/18 02:21:57;;;;;;;21.83;7.70;;;18.30;99.90;;;;;;5021375;28;20396;-37
2021/07/18 02:24:23;;;;;;;18.17;8.43;;;18.20;99.90;;;;;;5027385;28;20357;-37
2021/07/18 02:26:49;;;;;;;17.98;8.45;;;18.20;99.90;;;;;;5019468;28;20029;-37
2021/07/18 02:29:14;;;;;;;13.23;8.20;;;18.20;99.90;;;;;;5028306;28;20068;-37
2021/07/18 02:31:41;;;;;;;16.73;8.35;;;18.20;99.90;;;;;;5018050;28;20400;-37
2021/07/18 02:34:06;;;;;;;11.77;7.70;;;18.20;99.90;;;;;;5029979;28;20032;-37
2021/07/18 02:36:33;;;;;;;13.70;7.75;;;18.20;99.90;;;;;;5016121;28;20018;-37
2021/07/18 02:38:59;;;;;;;14.27;7.88;;;18.20;99.90;;;;;;5029375;28;20025;-37
2021/07/18 02:41:26;;;;;;;11.63;8.45;;;18.20;99.90;;;;;;5016936;28;20022;-37
2021/07/18 02:43:52;;;;;;;12.38;7.47;;;18.10;99.90;;;;;;5029458;28;20393;-37
2021/07/18 02:46:17;;;;;;;12.57;8.07;;;18.10;99.90;;;;;;5017954;28;20022;-37
2021/07/18 02:48:43;;;;;;;9.48;7.25;;;18.10;99.90;;;;;;5028701;28;20025;-37
2021/07/18 02:51:09;;;;;;;11.80;7.95;;;18.10;99.90;;;;;;5020634;28;20042;-37
2021/07/18 02:53:35;;;;;;;8.10;5.90;;;18.00;99.90;;;;;;5025443;28;20029;-37
2021/07/18 02:56:00;;;;;;;9.70;6.60;;;18.10;99.90;;;;;;5022838;28;20454;-37
2021/07/18 02:58:27;;;;;;;15.57;6.70;;;18.00;99.90;;;;;;5022685;28;20034;-37
2021/07/18 03:00:53;;;;;;;10.68;6.50;;;18.00;99.90;;;;;;5024361;28;20018;-37
2021/07/18 03:03:19;;;;;;;12.85;7.25;;;18.00;99.90;;;;;;5020853;28;20052;-37
2021/07/18 03:05:46;;;;;;;10.10;6.65;;;18.00;99.90;;;;;;5015303;28;20370;-37
2021/07/18 03:08:12;;;;;;;11.82;7.35;;;18.00;99.90;;;;;;5020825;28;20021;-37
2021/07/18 03:10:37;;;;;;;15.10;7.47;;;18.00;99.90;;;;;;5010408;28;20022;-37
2021/07/18 03:13:04;;;;;;;15.25;7.90;;;18.00;99.90;;;;;;5019994;28;20460;-37
2021/07/18 03:15:30;;;;;;;13.90;7.70;;;18.10;99.90;;;;;;5009312;28;20028;-37
2021/07/18 03:17:56;;;;;;;11.95;7.53;;;18.10;99.90;;;;;;5021386;28;20105;-37
2021/07/18 03:20:22;;;;;;;11.68;7.40;;;18.10;99.90;;;;;;5008698;28;20080;-37
2021/07/18 03:22:49;;;;;;;16.33;7.50;;;18.10;99.90;;;;;;5021306;28;20041;-37
2021/07/18 03:25:16;;;;;;;10.85;7.72;;;18.10;99.90;;;;;;5009789;28;20045;-37
2021/07/18 03:27:43;;;;;;;8.40;6.50;;;18.10;99.90;;;;;;5019668;28;20021;-37
2021/07/18 03:30:11;;;;;;;7.93;6.90;;;18.10;99.90;;;;;;5009983;28;20484;-37
2021/07/18 03:32:37;;;;;;;8.40;7.07;;;18.10;99.90;;;;;;5018077;28;20353;-37
2021/07/18 03:35:05;;;;;;;10.98;8.15;;;18.10;99.90;;;;;;5011720;28;20025;-37
2021/07/18 03:37:33;;;;;;;9.52;7.80;;;18.00;99.90;;;;;;5015836;28;20025;-38
2021/07/18 03:39:59;;;;;;;9.35;7.63;;;18.00;99.90;;;;;;5013744;28;20113;-37
2021/07/18 03:42:25;;;;;;;9.80;6.75;;;17.90;99.90;;;;;;5013023;28;20552;-38
2021/07/18 03:44:50;;;;;;;8.52;7.50;;;17.90;99.90;;;;;;5016348;28;20026;-37
2021/07/18 03:47:16;;;;;;;8.40;7.03;;;17.80;99.90;;;;;;5011919;28;20097;-37
2021/07/18 03:49:41;;;;;;;9.98;7.13;;;17.90;99.90;;;;;;5017746;28;20033;-37
2021/07/18 03:52:07;;;;;;;9.50;8.00;;;17.90;99.90;;;;;;5010658;28;20025;-37
2021/07/18 03:54:33;;;;;;;15.60;8.13;;;17.90;99.90;;;;;;5019088;28;20050;-37
2021/07/18 03:56:58;;;;;;;10.07;6.38;;;17.90;99.90;;;;;;5009872;28;20088;-37
2021/07/18 03:59:24;;;;;;;8.63;7.35;;;17.90;99.90;;;;;;5019600;28;20080;-37
2021/07/18 04:01:50;;;;;;;16.52;7.93;;;17.90;99.90;;;;;;5008778;28;20072;-37
2021/07/18 04:04:16;;;;;;;16.40;9.40;;;18.00;99.90;;;;;;5022542;28;20053;-37
2021/07/18 04:06:42;;;;;;;11.05;7.88;;;18.00;99.90;;;;;;5027786;28;20018;-37
2021/07/18 04:09:08;;;;;;;9.88;7.75;;;17.90;99.90;;;;;;5015803;28;20038;-37
2021/07/18 04:11:33;;;;;;;14.13;8.80;;;17.90;99.90;;;;;;5029664;28;20269;-37
2021/07/18 04:13:59;;;;;;;11.48;8.55;;;18.00;99.90;;;;;;5022716;28;20109;-37
2021/07/18 04:16:24;;;;;;;9.57;7.75;;;18.00;99.90;;;;;;5028524;28;20346;-37
2021/07/18 04:18:50;;;;;;;11.57;8.07;;;18.00;99.90;;;;;;5025227;28;20017;-37
2021/07/18 04:21:19;;;;;;;12.35;7.80;;;18.00;99.90;;;;;;5026780;28;20075;-37
2021/07/18 04:23:45;;;;;;;12.07;7.55;;;18.00;99.90;;;;;;5026366;28;20037;-37
2021/07/18 04:26:11;;;;;;;11.10;8.13;;;18.00;99.90;;;;;;5025419;28;20350;-38
2021/07/18 04:28:37;;;;;;;8.30;6.60;;;18.00;99.90;;;;;;5029420;28;20522;-37
2021/07/18 04:31:03;;;;;;;11.10;7.97;;;18.00;99.90;;;;;;5021424;28;20100;-37
2021/07/18 04:33:28;;;;;;;12.18;8.13;;;17.90;99.90;;;;;;5030738;28;20045;-37
2021/07/18 04:35:54;;;;;;;11.70;8.02;;;17.90;99.90;;;;;;5020758;28;20036;-37
2021/07/18 04:38:19;;;;;;;9.68;8.05;;;17.90;99.90;;;;;;5031146;28;20028;-37
2021/07/18 04:40:45;;;;;;;11.32;8.98;;;17.90;99.90;;;;;;5020338;28;20136;-37
2021/07/18 04:43:11;;;;;;;9.00;7.50;;;17.80;99.90;;;;;;5032180;28;20511;-37
2021/07/18 04:45:36;;;;;;;8.30;7.45;;;17.80;99.90;;;;;;5018820;28;20022;-37
2021/07/18 04:48:02;;;;;;;8.18;7.38;;;17.80;99.90;;;;;;5032099;28;20052;-37
2021/07/18 04:50:28;;;;;;;8.43;7.38;;;17.70;99.90;;;;;;5019586;28;20022;-37
2021/07/18 04:52:55;;;;;;;6.93;6.20;;;17.70;99.90;;;;;;5031029;28;20017;-37
2021/07/18 04:55:20;;;;;;;9.10;7.60;;;17.60;99.90;;;;;;5022343;28;20430;-37
2021/07/18 04:57:46;;;;;;;7.53;6.65;;;17.60;99.90;;;;;;5027936;28;20525;-37
2021/07/18 05:00:16;;;;;;;9.95;7.63;;;17.60;99.90;;;;;;5024576;28;20405;-37
2021/07/18 05:02:42;;;;;;;9.55;7.40;;;17.60;99.90;;;;;;5025569;28;20371;-37
2021/07/18 05:05:13;;;;;;;7.22;6.45;;;17.50;99.90;;;;;;5026601;28;20113;-37
2021/07/18 05:07:54;;;;;;;8.65;7.75;;;17.60;99.90;;;;;;5024767;28;20053;-37
2021/07/18 05:10:22;;;;;;;9.32;7.13;;;17.60;99.90;;;;;;5026363;28;20049;-37
2021/07/18 05:12:49;;;;;;;6.35;5.75;;;17.60;99.90;;;;;;5023853;28;20425;-37
2021/07/18 05:15:15;;;;;;;7.72;6.93;;;17.60;99.90;;;;;;5028823;28;20482;-37
2021/07/18 05:17:41;;;;;;;7.38;6.65;;;17.60;99.90;;;;;;5021430;28;20029;-37
2021/07/18 05:20:09;;;;;;;6.53;5.93;;;17.60;99.90;;;;;;5029064;28;20018;-37
2021/07/18 05:22:35;;;;;;;6.45;5.85;;;17.70;99.90;;;;;;5019840;28;20051;-37
2021/07/18 05:25:03;;;;;;;9.40;7.95;;;17.70;99.90;;;;;;5029204;28;20469;-37
2021/07/18 05:27:29;;;;;;;7.80;7.00;;;17.70;99.90;;;;;;5018962;28;20021;-37
2021/07/18 05:29:54;;;;;;;7.20;6.50;;;17.70;99.90;;;;;;5031614;28;20025;-37
2021/07/18 05:32:20;;;;;;;7.20;6.40;;;17.70;99.90;;;;;;5017986;28;20271;-37
2021/07/18 05:34:46;;;;;;;7.22;6.20;;;17.80;99.90;;;;;;5030326;28;20032;-37
2021/07/18 05:37:12;;;;;;;6.57;5.68;;;17.80;99.90;;;;;;5018821;28;20014;-38
2021/07/18 05:39:37;;;;;;;5.90;5.30;;;17.80;99.90;;;;;;5030480;28;20029;-37
2021/07/18 05:42:04;;;;;;;5.97;5.38;;;17.90;99.90;;;;;;5019511;28;20394;-37
2021/07/18 05:44:31;;;;;;;5.47;4.97;;;18.00;99.90;;;;;;5028869;28;20432;-37
2021/07/18 05:46:56;;;;;;;6.20;5.60;;;18.00;99.90;;;;;;5022284;28;20102;-37
2021/07/18 05:49:22;;;;;;;8.63;6.55;;;18.00;99.90;;;;;;5025771;28;20112;-37
2021/07/18 05:51:48;;;;;;;6.88;6.18;;;18.00;99.90;;;;;;5024762;28;20068;-37
2021/07/18 05:54:13;;;;;;;7.78;6.32;;;17.90;99.90;;;;;;5024156;28;20029;-37
2021/07/18 05:56:39;;;;;;;6.22;5.63;;;18.00;99.90;;;;;;5025151;28;20071;-37
2021/07/18 05:59:05;;;;;;;5.05;4.55;;;17.90;99.90;;;;;;5021313;28;20032;-37
2021/07/18 06:01:31;;;;;;;5.45;4.70;;;18.00;99.90;;;;;;5028081;28;20081;-37
2021/07/18 06:03:56;;;;;;;5.78;5.20;;;18.00;99.90;;;;;;5017658;28;20072;-37
2021/07/18 06:06:22;;;;;;;5.72;5.22;;;18.10;99.90;;;;;;5014544;28;20022;-37
2021/07/18 06:08:48;;;;;;;5.32;4.45;;;18.10;99.90;;;;;;5021062;28;20443;-37
2021/07/18 06:11:14;;;;;;;5.30;4.80;;;18.10;99.90;;;;;;5001980;28;20112;-37
2021/07/18 06:13:39;;;;;;;5.78;5.20;;;18.20;99.90;;;;;;5022004;28;20026;-37
2021/07/18 06:16:05;;;;;;;6.45;5.72;;;18.20;99.90;;;;;;5009713;28;20500;-37
2021/07/18 06:18:31;;;;;;;5.28;4.78;;;18.20;99.90;;;;;;5022862;28;20041;-37
2021/07/18 06:20:57;;;;;;;5.43;4.78;;;18.30;99.90;;;;;;5007514;28;20037;-37
2021/07/18 06:23:22;;;;;;;6.05;4.45;;;18.30;99.90;;;;;;5018263;28;20092;-37
2021/07/18 06:25:48;;;;;;;4.43;4.03;;;18.30;99.90;;;;;;5011930;28;20477;-37
2021/07/18 06:28:13;;;;;;;4.65;3.92;;;18.40;99.90;;;;;;5016768;28;20082;-36
2021/07/18 06:30:40;;;;;;;3.42;3.13;;;18.40;99.90;;;;;;5013530;28;20033;-37
2021/07/18 06:33:05;;;;;;;3.92;3.53;;;18.50;99.90;;;;;;5013931;28;20025;-37
2021/07/18 06:35:31;;;;;;;4.13;3.47;;;18.60;99.90;;;;;;5016677;28;20091;-37
2021/07/18 06:37:56;;;;;;;3.53;3.22;;;18.70;99.90;;;;;;5010725;28;20021;-37
2021/07/18 06:40:22;;;;;;;4.65;3.70;;;18.70;99.90;;;;;;5018548;28;20026;-37
2021/07/18 06:42:48;;;;;;;3.60;3.30;;;18.80;99.90;;;;;;5010769;28;20032;-37
2021/07/18 06:45:14;;;;;;;3.53;3.22;;;18.80;99.90;;;;;;5019477;28;20037;-37
2021/07/18 06:47:40;;;;;;;4.32;3.38;;;18.90;99.90;;;;;;5008649;28;20026;-37
2021/07/18 06:50:06;;;;;;;3.00;2.70;;;18.90;99.90;;;;;;5020608;28;20021;-37
2021/07/18 06:52:32;;;;;;;5.70;3.00;;;19.00;99.90;;;;;;5007986;28;20030;-37
2021/07/18 06:54:58;;;;;;;3.03;2.60;;;19.10;99.90;;;;;;5020886;28;20032;-37
2021/07/18 06:57:24;;;;;;;4.40;3.40;;;19.20;99.90;;;;;;5008252;28;20061;-37
2021/07/18 06:59:50;;;;;;;2.90;2.70;;;19.30;99.90;;;;;;5020817;28;20480;-37
2021/07/18 07:02:16;;;;;;;2.30;2.10;;;19.30;99.90;;;;;;5007778;28;20057;-37
2021/07/18 07:04:43;;;;;;;2.85;2.28;;;19.40;99.90;;;;;;5009858;28;20137;-37
2021/07/18 07:07:09;;;;;;;3.42;2.95;;;19.50;99.90;;;;;;5008493;28;20037;-38
2021/07/18 07:09:35;;;;;;;2.67;2.45;;;19.50;99.90;;;;;;5015529;28;20024;-37
2021/07/18 07:12:04;;;;;;;4.00;2.72;;;19.60;99.90;;;;;;5013286;28;20022;-37
2021/07/18 07:14:29;;;;;;;2.22;2.03;;;19.70;99.90;;;;;;5013232;28;20523;-37
2021/07/18 07:16:55;;;;;;;2.50;2.10;;;19.80;99.90;;;;;;5015416;28;20022;-38
2021/07/18 07:19:21;;;;;;;2.10;1.90;;;19.80;99.90;;;;;;5010560;28;20374;-37
2021/07/18 07:21:47;;;;;;;2.10;2.00;;;19.90;99.90;;;;;;5018400;28;20053;-37
2021/07/18 07:24:12;;;;;;;5.93;3.15;;;19.90;99.90;;;;;;5000794;28;20071;-37
2021/07/18 07:26:38;;;;;;;2.05;1.88;;;20.00;99.90;;;;;;5018349;28;20032;-37
2021/07/18 07:29:05;;;;;;;2.95;1.92;;;20.10;99.90;;;;;;5009222;28;20385;-37
2021/07/18 07:31:31;;;;;;;2.22;2.03;;;20.10;99.90;;;;;;5019585;28;20057;-38
2021/07/18 07:33:56;;;;;;;2.45;1.63;;;20.20;99.90;;;;;;5007836;28;20022;-37
2021/07/18 07:36:22;;;;;;;5.63;2.88;;;20.30;99.90;;;;;;5020174;28;20052;-37
2021/07/18 07:38:48;;;;;;;1.98;1.83;;;20.40;99.90;;;;;;5009195;28;20087;-37
2021/07/18 07:41:14;;;;;;;3.00;1.98;;;20.40;99.90;;;;;;5002416;28;20030;-37
2021/07/18 07:43:39;;;;;;;2.33;2.13;;;20.50;99.90;;;;;;5026483;28;20029;-37
2021/07/18 07:46:08;;;;;;;3.42;2.30;;;20.50;99.90;;;;;;5018756;28;20180;-37
2021/07/18 07:48:34;;;;;;;3.35;2.15;;;20.50;99.90;;;;;;5028044;28;20025;-37
2021/07/18 07:51:00;;;;;;;2.13;1.92;;;20.60;99.90;;;;;;5024666;28;20026;-37
2021/07/18 07:53:26;;;;;;;2.33;2.13;;;20.70;99.90;;;;;;5025618;28;20021;-37
2021/07/18 07:55:52;;;;;;;3.78;2.08;;;20.80;99.90;;;;;;5027277;28;20374;-37
2021/07/18 07:58:18;;;;;;;2.80;2.00;;;20.90;99.90;;;;;;5024320;28;20030;-37
2021/07/18 08:00:44;;;;;;;2.10;1.90;;;20.90;99.90;;;;;;5027865;28;20115;-37
2021/07/18 08:03:09;;;;;;;4.53;2.10;;;20.90;99.90;;;;;;5011037;28;20057;-37
2021/07/18 08:05:35;;;;;;;2.08;1.80;;;21.00;99.90;;;;;;5019240;28;20025;-37
2021/07/18 08:08:04;;;;;;;1.92;1.70;;;21.10;99.90;;;;;;5021370;28;20028;-37
2021/07/18 08:10:30;;;;;;;2.33;1.80;;;21.10;99.90;;;;;;5029639;28;20026;-37
2021/07/18 08:12:56;;;;;;;3.63;1.80;;;21.20;99.90;;;;;;5019014;28;20018;-37
2021/07/18 08:15:23;;;;;;;2.58;1.75;;;21.30;99.90;;;;;;5010461;28;20080;-37
2021/07/18 08:17:51;;;;;;;2.72;2.08;;;21.30;99.90;;;;;;5023803;28;20022;-37
2021/07/18 08:20:19;;;;;;;3.00;2.00;;;21.40;99.90;;;;;;5012468;28;20402;-38
2021/07/18 08:22:47;;;;;;;2.35;1.73;;;21.40;99.90;;;;;;5023284;28;20117;-37
2021/07/18 08:25:14;;;;;;;3.17;2.05;;;21.50;99.90;;;;;;5011606;28;20438;-37
2021/07/18 08:27:41;;;;;;;4.28;2.38;;;21.60;99.90;;;;;;5022073;28;20057;-37
2021/07/18 08:30:08;;;;;;;2.92;2.10;;;21.70;99.90;;;;;;5012101;28;20018;-37
2021/07/18 08:32:34;;;;;;;3.28;2.28;;;21.80;99.90;;;;;;5015967;28;20035;-37
2021/07/18 08:34:59;;;;;;;3.75;2.25;;;21.90;99.90;;;;;;5009107;28;20022;-38
2021/07/18 08:37:25;;;;;;;3.28;2.05;;;22.10;99.90;;;;;;5015904;28;20131;-38
2021/07/18 08:39:51;;;;;;;2.92;2.30;;;22.10;99.90;;;;;;5017224;28;20033;-38
2021/07/18 08:42:17;;;;;;;6.63;2.50;;;22.30;99.90;;;;;;5014697;28;20124;-37
2021/07/18 08:44:44;;;;;;;5.00;2.78;;;22.30;99.90;;;;;;5019848;28;20047;-37
2021/07/18 08:47:10;;;;;;;3.90;2.40;;;22.40;99.90;;;;;;5013167;28;20026;-37
2021/07/18 08:49:37;;;;;;;3.15;1.92;;;22.40;99.90;;;;;;5022586;28;20453;-38
2021/07/18 08:52:04;;;;;;;3.08;2.20;;;22.50;99.90;;;;;;5012112;28;20057;-37
2021/07/18 08:54:31;;;;;;;4.63;2.45;;;22.50;99.90;;;;;;5022299;28;20064;-37
2021/07/18 08:57:00;;;;;;;5.82;2.55;;;22.60;99.90;;;;;;5012415;28;20026;-37
2021/07/18 08:59:27;;;;;;;3.75;1.92;;;22.50;99.90;;;;;;5021051;28;20030;-37
2021/07/18 09:01:53;;;;;;;2.60;1.90;;;22.60;99.90;;;;;;5011738;28;20809;-37
2021/07/18 09:04:19;;;;;;;4.50;2.58;;;22.70;99.90;;;;;;5023501;28;20048;-37
2021/07/18 09:06:47;;;;;;;5.18;2.63;;;22.80;99.90;;;;;;5029170;28;20453;-37
2021/07/18 09:09:15;;;;;;;6.47;2.67;;;22.80;99.50;;;;;;5018463;28;20137;-37
2021/07/18 09:11:41;;;;;;;3.97;2.53;;;22.80;99.10;;;;;;4991259;28;20085;-38
2021/07/18 09:14:08;;;;;;;4.22;2.25;;;22.90;99.00;;;;;;5015624;28;20047;-37
2021/07/18 09:16:39;;;;;;;3.55;2.22;;;22.90;99.30;;;;;;5012500;28;20141;-37
2021/07/18 09:19:15;;;;;;;3.88;2.03;;;22.90;99.00;;;;;;5019011;28;20073;-37
2021/07/18 09:21:59;;;;;;;4.13;2.35;;;23.00;98.80;;;;;;5013491;28;20034;-37
2021/07/18 09:24:30;;;;;;;8.18;3.25;;;23.10;98.40;;;;;;5020007;28;20181;-37
2021/07/18 09:27:10;;;;;;;3.45;2.47;;;23.20;98.50;;;;;;5012303;28;20037;-37
2021/07/18 09:29:51;;;;;;;2.88;2.10;;;23.20;98.20;;;;;;5020361;28;20029;-37
2021/07/18 09:32:23;;;;;;;3.58;2.00;;;23.40;98.10;;;;;;5010041;28;20026;-38
2021/07/18 09:34:51;;;;;;;2.30;1.70;;;23.50;98.20;;;;;;4999499;28;20425;-37
2021/07/18 09:37:22;;;;;;;2.42;1.77;;;23.50;97.90;;;;;;5024242;28;20572;-37
2021/07/18 09:40:00;;;;;;;2.60;2.10;;;23.50;97.70;;;;;;5020508;28;20030;-37
2021/07/18 09:42:36;;;;;;;1.98;1.65;;;23.50;97.40;;;;;;5027084;28;20079;-37
2021/07/18 09:45:07;;;;;;;2.97;2.20;;;23.50;97.70;;;;;;5020939;28;20048;-37
2021/07/18 09:47:33;;;;;;;2.65;1.98;;;23.60;97.30;;;;;;5016089;28;20021;-37
2021/07/18 09:49:58;;;;;;;2.08;1.88;;;23.60;97.30;;;;;;5007779;28;20120;-37
2021/07/18 09:52:26;;;;;;;4.75;1.92;;;23.70;97.30;;;;;;5014291;28;20021;-38
2021/07/18 09:54:54;;;;;;;3.78;2.17;;;23.70;97.60;;;;;;5014411;28;20292;-38
2021/07/18 09:57:30;;;;;;;2.67;1.90;;;23.80;97.30;;;;;;5016986;28;20022;-37
2021/07/18 09:59:56;;;;;;;2.50;1.77;;;23.80;97.40;;;;;;5013686;28;20025;-37
2021/07/18 10:02:26;;;;;;;3.05;1.65;;;23.80;97.50;;;;;;5016993;28;20042;-37
2021/07/18 10:04:53;;;;;;;1.73;1.63;;;23.90;97.50;;;;;;5013390;28;20049;-37
2021/07/18 10:07:21;;;;;;;2.70;1.60;;;23.90;97.20;;;;;;5005216;28;20053;-38
2021/07/18 10:09:47;;;;;;;2.38;1.83;;;24.00;97.30;;;;;;5007955;28;20037;-37
2021/07/18 10:12:15;;;;;;;2.53;1.55;;;24.00;95.60;;;;;;5018189;28;20432;-37
2021/07/18 10:14:42;;;;;;;2.72;1.92;;;24.10;95.70;;;;;;5027093;28;20022;-38
2021/07/18 10:17:09;;;;;;;2.22;2.03;;;24.20;95.60;;;;;;5017379;28;20259;-37
2021/07/18 10:19:35;;;;;;;1.67;1.58;;;24.10;94.90;;;;;;5009536;28;20101;-38
2021/07/18 10:22:02;;;;;;;1.70;1.60;;;24.20;95.30;;;;;;5021037;28;20105;-37
2021/07/18 10:24:29;;;;;;;1.70;1.60;;;24.30;95.40;;;;;;5005807;28;20041;-37
2021/07/18 10:26:58;;;;;;;2.00;1.60;;;24.20;95.70;;;;;;5018748;28;20021;-38
2021/07/18 10:29:25;;;;;;;3.78;1.85;;;24.20;95.50;;;;;;5001160;28;20030;-37
2021/07/18 10:31:54;;;;;;;1.67;1.58;;;24.30;95.30;;;;;;5017815;28;20381;-38
2021/07/18 10:34:25;;;;;;;2.58;2.00;;;24.40;95.30;;;;;;5000137;28;20026;-38
2021/07/18 10:36:51;;;;;;;2.65;1.50;;;24.40;93.90;;;;;;5005105;28;20024;-38
2021/07/18 10:39:30;;;;;;;3.13;1.92;;;24.50;94.20;;;;;;5007847;28;20025;-38
2021/07/18 10:41:57;;;;;;;1.65;1.55;;;24.60;93.90;;;;;;5018819;28;20663;-37
2021/07/18 10:44:23;;;;;;;2.10;1.90;;;24.70;93.60;;;;;;5005201;28;20286;-37
2021/07/18 10:46:54;;;;;;;2.60;2.03;;;24.80;93.90;;;;;;5007683;28;20522;-37
2021/07/18 10:49:59;;;;;;;3.10;1.83;;;24.90;93.70;;;;;;5002690;28;20066;-38
2021/07/18 10:52:31;;;;;;;2.50;1.88;;;24.80;93.40;;;;;;5007544;28;20061;-38
2021/07/18 10:54:57;;;;;;;1.83;1.73;;;24.80;94.00;;;;;;5001760;28;20018;-38
2021/07/18 10:57:29;;;;;;;3.25;2.08;;;24.80;93.70;;;;;;5008519;28;20033;-37
2021/07/18 10:59:56;;;;;;;2.50;1.98;;;24.90;94.00;;;;;;5012767;28;20017;-37
2021/07/18 11:02:34;;;;;;;3.28;2.65;;;24.90;93.80;;;;;;5012567;28;20056;-37
2021/07/18 11:05:03;;;;;;;3.55;2.20;;;24.90;92.80;;;;;;5023473;28;20372;-37
2021/07/18 11:07:36;;;;;;;2.33;2.13;;;24.90;92.90;;;;;;5012825;28;20032;-37
2021/07/18 11:10:13;;;;;;;2.40;2.20;;;25.00;92.70;;;;;;5024234;28;20064;-37
2021/07/18 11:12:43;;;;;;;3.90;2.17;;;25.00;93.10;;;;;;5022654;28;20026;-38
2021/07/18 11:15:15;;;;;;;2.08;1.90;;;25.10;93.20;;;;;;5013695;28;20041;-37
2021/07/18 11:18:25;;;;;;;3.65;2.25;;;25.10;93.00;;;;;;5013749;28;20476;-38
2021/07/18 11:20:54;;;;;;;2.30;2.10;;;25.10;92.80;;;;;;5026758;28;20128;-37
2021/07/18 11:23:46;;;;;;;2.95;2.40;;;25.20;93.10;;;;;;5024654;28;20037;-37
2021/07/18 11:26:15;;;;;;;2.60;2.40;;;25.20;92.70;;;;;;4993282;28;20037;-38
2021/07/18 11:28:49;;;;;;;4.07;2.25;;;25.20;92.80;;;;;;5016946;28;20481;-38
2021/07/18 11:31:21;;;;;;;2.40;2.20;;;25.20;92.50;;;;;;5028790;28;20056;-37
2021/07/18 11:33:52;;;;;;;2.78;2.58;;;25.20;92.90;;;;;;5018709;28;20101;-37
2021/07/18 11:36:30;;;;;;;3.85;2.80;;;25.20;92.80;;;;;;5027476;28;20026;-37
2021/07/18 11:38:56;;;;;;;2.65;2.33;;;25.30;92.80;;;;;;5013110;28;20033;-37
2021/07/18 11:41:29;;;;;;;4.25;2.60;;;25.30;92.80;;;;;;5001193;28;20101;-37
2021/07/18 11:43:58;;;;;;;2.55;2.15;;;25.40;92.90;;;;;;5004351;28;20034;-37
2021/07/18 11:46:26;;;;;;;2.90;2.30;;;25.40;93.10;;;;;;5024369;28;20045;-38
2021/07/18 11:48:55;;;;;;;3.50;2.40;;;25.50;93.10;;;;;;5019216;28;20023;-38
2021/07/18 11:51:24;;;;;;;2.33;2.13;;;25.50;93.20;;;;;;5017046;28;20440;-37
2021/07/18 11:53:52;;;;;;;4.20;2.72;;;25.50;93.00;;;;;;5024140;28;20030;-37
2021/07/18 11:56:25;;;;;;;2.92;2.60;;;25.60;93.10;;;;;;5019236;28;20047;-38
2021/07/18 11:58:51;;;;;;;3.13;2.17;;;25.70;92.80;;;;;;5012258;28;20382;-38
2021/07/18 12:01:26;;;;;;;3.38;1.92;;;25.70;92.90;;;;;;5012043;28;20492;-37
2021/07/18 12:03:53;;;;;;;5.25;2.20;;;25.80;92.70;;;;;;4998645;28;20116;-37
2021/07/18 12:06:20;;;;;;;4.03;2.40;;;25.80;92.40;;;;;;5018724;28;20075;-37
2021/07/18 12:08:46;;;;;;;2.78;2.13;;;25.90;92.40;;;;;;5025094;28;20018;-38
2021/07/18 12:11:18;;;;;;;3.20;2.90;;;25.90;92.50;;;;;;5014041;28;20033;-37
2021/07/18 12:13:46;;;;;;;4.43;3.00;;;25.90;92.10;;;;;;5024891;28;20536;-37
2021/07/18 12:16:11;;;;;;;2.40;2.20;;;26.00;92.30;;;;;;5014543;28;20028;-38
2021/07/18 12:18:48;;;;;;;2.50;2.30;;;26.00;92.40;;;;;;5026613;28;20017;-38
2021/07/18 12:21:19;;;;;;;3.47;2.70;;;26.00;92.30;;;;;;5003137;28;20045;-38
2021/07/18 12:24:20;;;;;;;2.40;2.20;;;26.00;91.70;;;;;;4999317;28;20486;-37
2021/07/18 12:26:58;;;;;;;2.88;2.67;;;26.10;91.90;;;;;;5007008;28;20018;-38
2021/07/18 12:29:25;;;;;;;2.65;2.45;;;26.00;91.10;;;;;;5001803;28;20031;-37
2021/07/18 12:31:51;;;;;;;3.90;2.65;;;26.10;91.40;;;;;;5001996;28;20025;-38
2021/07/18 12:34:18;;;;;;;2.85;2.58;;;26.10;91.40;;;;;;5003980;28;20017;-37
2021/07/18 12:37:19;;;;;;;3.10;2.67;;;26.10;90.90;;;;;;5009612;28;20033;-38
2021/07/18 12:39:53;;;;;;;3.38;2.60;;;26.10;90.50;;;;;;5006983;28;20057;-37
2021/07/18 12:42:29;;;;;;;2.50;2.30;;;26.10;90.80;;;;;;5017749;28;20029;-37
2021/07/18 12:45:00;;;;;;;2.92;2.45;;;26.10;90.70;;;;;;5031074;28;20018;-37